Briefing drone pour La charite-sur-loire

Rechercher une autre localisation

Conditions de vol :


Nous sommes le : Mardi 16 août 2022
Il est 01:17 UTC (03:18 LT)

Lever de soleil : 04:19 UTC (06:19 LT)
Coucher de soleil : 19:24 UTC (21:24 LT)

Météo

L'essentiel des conditions de vol

VIGILANCE MÉTÉO FRANCE - Nièvre (58)
Vigilance Jaune : Orages
CARTE TEMSI
CARTES DES FRONTS
METAR de LFQG
LFQG 151800Z AUTO 28010KT CAVOK 25/15 Q1008

Date d'émission: 15/08/2022
Heure d'émission: 18:00 UTC
Vent: 280° pour 10 KT (19 km/h)
Visibilité horizontale: > 10 km
Plafond : Plafond et visibilité OK (CAVOK)
Température: 25 °C
Point de rosée: 15 °C
Humidité: 54%
Pression (QNH): 1008 hPa
Prévision 24h pour Nevers (15 km)
Vent : 206° pour 0 KT (0 km/h)
Temperature Maxi: 16 °C
Temperature Min: 16 °C
Humidité : 90%
Condition : Légère pluie



Warning: count(): Parameter must be an array or an object that implements Countable in /homepages/6/d509196549/htdocs/droneoxygene/briefing.php on line 743
WEBCAM POUR LA CHARITE-SUR-LOIRE

Réglementation

Voler en sécurité

CARTES AERONAUTIQUE 1/500.000
CARTE AZBA (Reseau basse altitude)
CARTES VAC (LFQG)
SUP AIP




Chargement des AIP...
NOTAM (LA CHARITE-SUR-LOIRE + Terrain à proximité / FIR )




Chargement des NOTAMS...
CONTACT PREFECTURE 58


Avertissement : Les données mises à disposition sont indicatives. Oxygène Drone ne pourra être tenu responsable de dégâts causés aux biens et aux personnes.